createdAt,value
2018-06-29T04:12:55.745Z,83.20
2018-06-29T04:15:28.430Z,80.00
2018-06-29T04:18:00.823Z,77.30
2018-06-29T04:20:33.249Z,75.90
2018-06-29T04:23:05.905Z,74.30
2018-06-29T04:25:38.630Z,74.30
2018-06-29T04:28:11.042Z,73.40
2018-06-29T04:30:43.761Z,74.30
2018-06-29T04:33:16.161Z,73.00
2018-06-29T04:35:48.570Z,74.10
2018-06-29T04:38:20.948Z,74.90
2018-06-29T04:40:53.357Z,75.90
2018-06-29T04:43:25.745Z,76.60
2018-06-29T04:45:58.403Z,76.90
2018-06-29T04:48:30.812Z,76.00
2018-06-29T04:51:03.209Z,74.10
2018-06-29T04:53:35.605Z,72.00
2018-06-29T04:56:08.013Z,69.80
2018-06-29T04:58:40.738Z,67.80
2018-06-29T05:01:13.154Z,65.30
2018-06-29T05:03:45.542Z,65.30
2018-06-29T05:06:17.946Z,64.10
2018-06-29T05:08:50.629Z,63.00
2018-06-29T05:11:23.033Z,62.80
2018-06-29T05:13:55.429Z,62.90
2018-06-29T05:16:27.829Z,64.00
2018-06-29T05:19:00.218Z,62.40
2018-06-29T05:21:32.635Z,60.90
2018-06-29T05:26:37.288Z,59.10
2018-06-29T05:29:10.274Z,59.30
2018-06-29T05:34:15.125Z,59.00
2018-06-29T05:36:47.606Z,59.20
2018-06-29T05:39:20.001Z,59.50
2018-06-29T05:41:52.406Z,58.40
2018-06-29T05:44:25.214Z,58.30
2018-06-29T05:46:57.712Z,55.80
2018-06-29T05:49:30.239Z,55.40
2018-06-29T05:52:02.660Z,54.20
2018-06-29T05:54:35.058Z,54.80
2018-06-29T05:57:07.774Z,56.00
2018-06-29T05:59:40.189Z,55.10
2018-06-29T06:02:12.565Z,52.80
2018-06-29T06:04:45.150Z,52.10
2018-06-29T06:07:17.523Z,50.10
2018-06-29T06:09:49.941Z,49.40
2018-06-29T06:12:22.355Z,47.40
2018-06-29T06:14:54.973Z,48.70
2018-06-29T06:17:27.388Z,51.00
2018-06-29T06:20:07.602Z,51.00
2018-06-29T06:22:40.282Z,52.50
2018-06-29T06:25:12.686Z,52.60
2018-06-29T06:27:45.372Z,53.60
2018-06-29T06:30:17.768Z,52.60
2018-06-29T06:32:50.169Z,51.80
2018-06-29T06:35:22.857Z,52.30
2018-06-29T06:37:55.262Z,51.70
2018-06-29T06:40:27.657Z,52.00
2018-06-29T06:43:00.055Z,52.00
2018-06-29T06:45:33.814Z,49.90
2018-06-29T06:48:06.558Z,50.30
2018-06-29T06:50:38.937Z,50.30
2018-06-29T06:53:11.328Z,48.90
2018-06-29T06:55:44.018Z,49.10
2018-06-29T06:58:16.491Z,50.20
2018-06-29T07:00:48.889Z,49.70
2018-06-29T07:03:21.621Z,47.60
2018-06-29T07:05:54.005Z,47.70
2018-06-29T07:08:26.414Z,45.80
2018-06-29T07:10:58.809Z,44.60
2018-06-29T07:13:31.336Z,45.50
2018-06-29T07:16:03.761Z,46.00
2018-06-29T07:18:36.161Z,45.90
2018-06-29T07:21:08.863Z,46.80
2018-06-29T07:23:41.537Z,46.30
2018-06-29T07:26:14.217Z,48.10
2018-06-29T07:28:46.626Z,47.00
2018-06-29T07:31:19.272Z,46.60
2018-06-29T07:33:51.945Z,46.00
2018-06-29T07:36:24.585Z,46.20
2018-06-29T07:38:57.270Z,46.90
2018-06-29T07:41:29.984Z,47.10
2018-06-29T07:44:02.450Z,47.60
2018-06-29T07:49:07.141Z,46.70
2018-06-29T07:51:39.841Z,47.60
2018-06-29T07:54:12.243Z,47.80
2018-06-29T07:56:44.930Z,47.30
2018-06-29T07:59:17.314Z,48.30
2018-06-29T08:01:49.694Z,48.80
2018-06-29T08:04:22.350Z,48.00
2018-06-29T08:06:55.029Z,46.90
2018-06-29T08:09:27.694Z,46.40
2018-06-29T08:12:00.082Z,47.00
2018-06-29T08:14:32.756Z,47.50
2018-06-29T08:17:05.153Z,47.60
2018-06-29T08:19:37.553Z,46.70
2018-06-29T08:22:09.945Z,46.50
2018-06-29T08:24:53.646Z,46.50
2018-06-29T08:27:26.031Z,46.20
2018-06-29T08:29:58.417Z,45.90
2018-06-29T08:32:30.794Z,45.20
2018-06-29T08:35:03.223Z,44.20
2018-06-29T08:37:35.669Z,44.10
2018-06-29T08:40:08.289Z,44.00
2018-06-29T08:42:40.671Z,43.50
2018-06-29T08:45:13.049Z,42.60
2018-06-29T08:47:45.726Z,41.30
2018-06-29T08:50:18.134Z,41.50
2018-06-29T08:52:50.522Z,42.00
2018-06-29T08:55:23.157Z,42.20
2018-06-29T08:57:55.563Z,42.90
2018-06-29T09:00:28.249Z,43.70
2018-06-29T09:03:01.006Z,42.20
2018-06-29T09:05:33.715Z,43.00
2018-06-29T09:08:06.483Z,42.60
2018-06-29T09:10:39.175Z,42.70
2018-06-29T09:13:11.817Z,41.50
2018-06-29T09:15:44.481Z,42.90
2018-06-29T09:18:17.145Z,42.40
2018-06-29T09:20:49.537Z,41.30
2018-06-29T09:23:21.962Z,40.30
2018-06-29T09:25:54.353Z,39.70
2018-06-29T09:28:26.746Z,39.80
2018-06-29T09:30:59.146Z,39.40
2018-06-29T09:33:31.846Z,39.60
2018-06-29T09:36:04.250Z,40.20
2018-06-29T09:38:36.669Z,40.10
2018-06-29T09:41:09.164Z,40.10
2018-06-29T09:43:41.553Z,39.80
2018-06-29T09:46:13.930Z,40.40
2018-06-29T09:48:46.638Z,39.80
2018-06-29T09:51:19.022Z,39.70
2018-06-29T09:53:51.457Z,40.30
2018-06-29T09:56:23.846Z,40.60
2018-06-29T09:58:56.259Z,40.40
2018-06-29T10:01:28.774Z,39.90
2018-06-29T10:04:01.041Z,39.80
2018-06-29T10:06:33.720Z,40.10
2018-06-29T10:09:07.592Z,39.30
2018-06-29T10:11:40.224Z,39.50
2018-06-29T10:14:12.654Z,40.40
2018-06-29T10:16:45.297Z,39.70
2018-06-29T10:19:17.728Z,39.90
2018-06-29T10:21:50.389Z,39.60
2018-06-29T10:24:22.833Z,39.70
2018-06-29T10:26:55.163Z,39.40
2018-06-29T10:29:27.561Z,39.20
2018-06-29T10:31:59.946Z,39.70
2018-06-29T10:34:32.346Z,39.10
2018-06-29T10:37:04.737Z,40.30
2018-06-29T10:39:37.138Z,39.30
2018-06-29T10:42:09.517Z,39.20
2018-06-29T10:44:41.941Z,39.70
2018-06-29T10:47:14.296Z,39.10
2018-06-29T10:49:46.780Z,39.00
2018-06-29T10:52:19.157Z,38.80
2018-06-29T10:54:51.808Z,39.20
2018-06-29T10:57:24.225Z,38.10
2018-06-29T10:59:56.626Z,37.10
2018-06-29T11:02:29.014Z,37.40
2018-06-29T11:05:01.418Z,36.40
2018-06-29T11:07:33.806Z,36.00
2018-06-29T11:10:06.470Z,36.20
2018-06-29T11:12:38.857Z,36.50
2018-06-29T11:15:11.256Z,36.70
2018-06-29T11:17:43.969Z,36.90
2018-06-29T11:20:16.452Z,36.60
2018-06-29T11:22:49.134Z,36.10
2018-06-29T11:25:21.556Z,35.40
2018-06-29T11:27:54.506Z,35.60
2018-06-29T11:30:26.936Z,35.00
2018-06-29T11:32:59.325Z,35.60
2018-06-29T11:35:31.713Z,35.50
2018-06-29T11:38:04.107Z,35.10
2018-06-29T11:40:36.778Z,34.90
2018-06-29T11:43:09.412Z,35.40
2018-06-29T11:45:41.838Z,35.40
2018-06-29T11:48:14.209Z,35.20
2018-06-29T11:50:47.287Z,34.90
2018-06-29T11:53:19.662Z,36.10
2018-06-29T11:55:52.072Z,37.20
2018-06-29T11:58:24.471Z,38.10
2018-06-29T12:00:56.869Z,38.20
2018-06-29T12:03:29.759Z,38.40
2018-06-29T12:06:02.416Z,38.70
2018-06-29T12:08:34.801Z,38.40
2018-06-29T12:11:07.205Z,37.60
2018-06-29T12:13:39.593Z,38.40
2018-06-29T12:16:11.993Z,38.40
2018-06-29T12:18:44.381Z,39.00
2018-06-29T12:21:16.789Z,39.50
2018-06-29T12:23:49.186Z,39.70
2018-06-29T12:26:21.589Z,40.40
2018-06-29T12:28:53.994Z,39.60
2018-06-29T12:31:26.664Z,40.00
2018-06-29T12:33:59.070Z,39.90
2018-06-29T12:36:31.713Z,40.40
2018-06-29T12:39:06.088Z,39.60
2018-06-29T12:41:38.484Z,40.60
2018-06-29T12:44:10.891Z,39.90
2018-06-29T12:46:43.284Z,40.20
2018-06-29T12:49:15.993Z,40.30
2018-06-29T12:51:48.403Z,40.20
2018-06-29T12:54:20.875Z,39.90
2018-06-29T12:56:53.303Z,39.90
2018-06-29T12:59:25.689Z,40.10
2018-06-29T13:01:58.096Z,39.80
2018-06-29T13:04:30.726Z,40.00
2018-06-29T13:07:03.145Z,39.50
2018-06-29T13:09:35.778Z,40.30
2018-06-29T13:12:08.204Z,39.80
2018-06-29T13:14:40.588Z,38.60
2018-06-29T13:17:13.311Z,38.90
2018-06-29T13:19:45.696Z,39.90
2018-06-29T13:22:18.350Z,40.20
2018-06-29T13:24:50.984Z,40.00
2018-06-29T13:27:23.390Z,40.00
2018-06-29T13:29:55.774Z,40.70
2018-06-29T13:32:28.181Z,40.30
2018-06-29T13:35:00.562Z,41.10
2018-06-29T13:37:32.972Z,41.60
2018-06-29T13:40:05.418Z,41.30
2018-06-29T13:42:37.829Z,41.80
2018-06-29T13:45:10.217Z,41.00
2018-06-29T13:47:42.618Z,39.50
2018-06-29T13:50:15.039Z,40.80
2018-06-29T13:52:47.758Z,40.50
2018-06-29T13:55:20.140Z,41.20
2018-06-29T13:57:52.830Z,41.40
2018-06-29T14:00:25.506Z,41.00
2018-06-29T14:02:58.145Z,41.50
2018-06-29T14:05:30.883Z,41.20
2018-06-29T14:08:03.294Z,41.90
2018-06-29T14:10:35.914Z,41.50
2018-06-29T14:13:08.334Z,41.80
2018-06-29T14:15:40.725Z,41.30
2018-06-29T14:18:13.413Z,40.70
2018-06-29T14:20:45.806Z,40.90
2018-06-29T14:23:18.493Z,41.10
2018-06-29T14:25:50.897Z,41.30
2018-06-29T14:28:23.319Z,41.60
2018-06-29T14:30:55.710Z,41.30
2018-06-29T14:33:28.337Z,41.90
2018-06-29T14:36:00.721Z,41.20
2018-06-29T14:38:33.135Z,41.30
2018-06-29T14:41:05.525Z,42.00
2018-06-29T14:43:37.938Z,41.60
2018-06-29T14:46:10.653Z,41.40
2018-06-29T14:48:43.075Z,41.40
2018-06-29T14:51:15.466Z,41.90
2018-06-29T14:53:47.887Z,41.70
2018-06-29T14:56:20.281Z,41.40
2018-06-29T14:58:52.692Z,41.50
2018-06-29T15:01:25.081Z,41.30
2018-06-29T15:03:57.486Z,41.10
2018-06-29T15:06:30.449Z,41.60
2018-06-29T15:09:04.866Z,40.90
2018-06-29T15:11:37.514Z,41.20
2018-06-29T15:14:09.916Z,41.30
2018-06-29T15:16:42.598Z,41.10
2018-06-29T15:19:15.256Z,41.60
2018-06-29T15:24:20.233Z,41.40
2018-06-29T15:26:52.629Z,41.20
2018-06-29T15:29:25.273Z,40.60
2018-06-29T15:31:57.657Z,40.70
2018-06-29T15:34:30.062Z,40.60
2018-06-29T15:37:02.813Z,40.40
2018-06-29T15:39:35.652Z,40.00
2018-06-29T15:42:08.392Z,39.90
2018-06-29T15:44:41.115Z,40.20
2018-06-29T15:47:13.890Z,40.40
2018-06-29T15:52:19.147Z,39.20
2018-06-29T15:54:51.886Z,39.40
2018-06-29T15:57:24.642Z,40.00
2018-06-29T15:59:57.261Z,39.80
2018-06-29T16:02:29.669Z,39.70
2018-06-29T16:05:02.064Z,40.00
2018-06-29T16:07:34.796Z,40.10
2018-06-29T16:10:07.213Z,40.10
2018-06-29T16:12:39.897Z,40.00
2018-06-29T16:15:12.642Z,39.60
2018-06-29T16:17:45.315Z,39.80
2018-06-29T16:20:17.713Z,40.00
2018-06-29T16:22:50.109Z,40.00
2018-06-29T16:25:22.500Z,40.10
2018-06-29T16:27:54.906Z,40.10
2018-06-29T16:30:27.304Z,39.50
2018-06-29T16:32:59.956Z,39.20
2018-06-29T16:35:32.356Z,40.00
2018-06-29T16:38:05.262Z,38.90
2018-06-29T16:40:37.649Z,39.10
2018-06-29T16:43:10.297Z,39.20
2018-06-29T16:45:42.932Z,39.90
2018-06-29T16:48:15.350Z,40.20
2018-06-29T16:50:47.760Z,39.80
2018-06-29T16:53:20.133Z,39.70
2018-06-29T16:55:52.571Z,40.20
2018-06-29T16:58:25.096Z,39.90
2018-06-29T17:00:57.621Z,40.00
2018-06-29T17:03:30.034Z,40.30
2018-06-29T17:06:02.430Z,41.00
2018-06-29T17:08:34.829Z,41.20
2018-06-29T17:11:07.490Z,41.80
2018-06-29T17:13:39.897Z,41.90
2018-06-29T17:16:12.302Z,42.00
2018-06-29T17:18:44.764Z,42.40
2018-06-29T17:21:17.106Z,42.60
2018-06-29T17:23:49.511Z,42.50
2018-06-29T17:26:21.914Z,42.60
2018-06-29T17:28:54.483Z,43.00
2018-06-29T17:31:26.818Z,43.50
2018-06-29T17:34:00.047Z,43.70
2018-06-29T17:36:32.353Z,44.10
2018-06-29T17:39:07.352Z,43.90
2018-06-29T17:41:40.073Z,43.90
2018-06-29T17:44:12.470Z,44.10
2018-06-29T17:46:44.866Z,44.40
2018-06-29T17:49:17.291Z,44.30
2018-06-29T17:51:49.677Z,44.80
2018-06-29T17:54:22.126Z,44.80
2018-06-29T17:56:54.519Z,44.70
2018-06-29T17:59:27.182Z,44.60
2018-06-29T18:01:59.561Z,44.80
2018-06-29T18:04:31.965Z,45.10
2018-06-29T18:07:04.446Z,45.10
2018-06-29T18:09:36.809Z,44.90
2018-06-29T18:12:09.210Z,45.30
2018-06-29T18:14:41.928Z,45.40
2018-06-29T18:17:14.618Z,44.80
2018-06-29T18:19:47.076Z,45.00
2018-06-29T18:22:19.466Z,45.10
2018-06-29T18:24:51.885Z,45.20
2018-06-29T18:27:24.627Z,45.30
2018-06-29T18:29:57.265Z,45.40
2018-06-29T18:32:29.745Z,45.40
2018-06-29T18:35:02.414Z,46.00
2018-06-29T18:37:35.114Z,45.40
2018-06-29T18:40:07.514Z,45.70
2018-06-29T18:42:39.910Z,45.70
2018-06-29T18:45:12.305Z,46.10
2018-06-29T18:47:44.954Z,46.00
2018-06-29T18:50:17.689Z,46.70
2018-06-29T18:52:50.578Z,46.00
2018-06-29T18:55:22.970Z,46.20
2018-06-29T18:57:56.706Z,46.20
2018-06-29T19:00:31.338Z,45.90
2018-06-29T19:03:04.541Z,45.80
2018-06-29T19:05:36.945Z,45.50
2018-06-29T19:08:09.330Z,45.40
2018-06-29T19:10:41.729Z,45.50
2018-06-29T19:13:14.121Z,45.70
2018-06-29T19:15:46.505Z,45.90
2018-06-29T19:18:18.894Z,45.60
2018-06-29T19:20:51.310Z,45.30
2018-06-29T19:25:56.010Z,45.50
2018-06-29T19:28:28.961Z,45.90
2018-06-29T19:31:01.561Z,46.60
2018-06-29T19:33:34.393Z,46.70
2018-06-29T19:36:06.793Z,47.10
2018-06-29T19:38:39.261Z,47.20
2018-06-29T19:41:12.073Z,47.10
2018-06-29T19:43:44.461Z,47.20
2018-06-29T19:46:16.965Z,47.50
2018-06-29T19:48:49.395Z,47.10
2018-06-29T19:51:22.006Z,47.40
2018-06-29T19:53:54.701Z,47.30
2018-06-29T19:56:27.650Z,47.30
2018-06-29T19:59:00.057Z,47.30
2018-06-29T20:01:32.437Z,46.60
2018-06-29T20:04:05.065Z,46.90
2018-06-29T20:06:37.465Z,47.30
2018-06-29T20:09:09.858Z,47.30
2018-06-29T20:11:42.269Z,47.30
2018-06-29T20:14:14.666Z,47.40
2018-06-29T20:16:47.177Z,47.40
2018-06-29T20:19:19.604Z,47.70
2018-06-29T20:21:52.017Z,47.90
2018-06-29T20:24:24.439Z,47.80
2018-06-29T20:26:56.891Z,47.80
2018-06-29T20:29:29.234Z,48.00
2018-06-29T20:32:01.878Z,48.10
2018-06-29T20:34:34.266Z,48.10
2018-06-29T20:37:06.662Z,48.20
2018-06-29T20:39:39.602Z,48.20
2018-06-29T20:42:11.997Z,48.70
2018-06-29T20:44:44.369Z,48.80
2018-06-29T20:47:17.003Z,49.10
